Time;durP1;ratioP1;P1;durP2;ratioP2;P2;SDS_P1;SDS_P2;PMS_P1;PMS_P2;Temp;Humidity;BMP_temperature;BMP_pressure;BME280_temperature;BME280_humidity;BME280_pressure;Samples;Min_cycle;Max_cycle;Signal;HPM_P1;HPM_P2
2021/09/10 00:00:37;;;;;;;10.55;6.85;;;;;;;;;;4953426;28;20034;-59
2021/09/10 00:03:02;;;;;;;8.83;7.10;;;;;;;;;;4953221;28;20035;-60
2021/09/10 00:05:28;;;;;;;7.90;6.73;;;;;;;;;;4951704;29;20089;-60
2021/09/10 00:07:53;;;;;;;7.53;6.55;;;;;;;;;;4952156;28;20271;-59
2021/09/10 00:10:18;;;;;;;7.87;6.77;;;;;;;;;;4952591;28;20020;-60
2021/09/10 00:12:44;;;;;;;8.57;6.22;;;;;;;;;;4953253;28;20306;-60
2021/09/10 00:15:12;;;;;;;8.17;6.50;;;;;;;;;;4952893;28;20522;-60
2021/09/10 00:17:37;;;;;;;8.93;6.65;;;;;;;;;;4953185;28;20278;-60
2021/09/10 00:20:03;;;;;;;11.47;7.40;;;;;;;;;;4952986;28;20035;-59
2021/09/10 00:22:34;;;;;;;8.93;6.70;;;;;;;;;;4956686;28;20318;-58
2021/09/10 00:25:08;;;;;;;8.77;6.85;;;;;;;;;;4956484;28;20051;-60
2021/09/10 00:27:36;;;;;;;8.43;7.07;;;;;;;;;;4956339;28;20434;-60
2021/09/10 00:30:03;;;;;;;9.20;6.82;;;;;;;;;;4955936;28;20100;-60
2021/09/10 00:32:31;;;;;;;11.88;7.22;;;;;;;;;;4956274;28;20109;-60
2021/09/10 00:35:08;;;;;;;8.32;7.05;;;;;;;;;;4956353;28;20542;-60
2021/09/10 00:37:37;;;;;;;10.43;7.07;;;;;;;;;;4955104;29;20031;-60
2021/09/10 00:40:03;;;;;;;8.98;7.13;;;;;;;;;;4955016;28;20182;-60
2021/09/10 00:42:28;;;;;;;9.80;6.82;;;;;;;;;;4957273;28;20024;-60
2021/09/10 00:44:53;;;;;;;12.95;7.22;;;;;;;;;;4956577;28;20386;-60
2021/09/10 00:47:19;;;;;;;14.27;7.00;;;;;;;;;;4956290;28;20026;-60
2021/09/10 00:49:44;;;;;;;9.03;6.77;;;;;;;;;;4955623;28;20717;-60
2021/09/10 00:52:15;;;;;;;10.63;7.63;;;;;;;;;;4969005;28;20270;-59
2021/09/10 00:54:43;;;;;;;8.23;6.20;;;;;;;;;;4955835;28;20267;-60
2021/09/10 00:57:08;;;;;;;9.90;6.90;;;;;;;;;;4955437;28;20023;-59
2021/09/10 00:59:37;;;;;;;10.82;6.80;;;;;;;;;;4966693;28;20565;-60
2021/09/10 01:02:02;;;;;;;9.40;7.03;;;;;;;;;;4954598;28;20035;-60
2021/09/10 01:04:38;;;;;;;9.18;6.93;;;;;;;;;;4954508;28;20034;-58
2021/09/10 01:07:07;;;;;;;9.68;7.75;;;;;;;;;;4955487;28;20405;-60
2021/09/10 01:09:32;;;;;;;8.90;7.43;;;;;;;;;;4955563;28;20501;-60
2021/09/10 01:11:57;;;;;;;9.27;6.93;;;;;;;;;;4955392;28;20019;-59
2021/09/10 01:14:29;;;;;;;8.88;7.95;;;;;;;;;;4956005;28;20019;-60
2021/09/10 01:16:54;;;;;;;8.55;7.65;;;;;;;;;;4979658;23;20050;-56
2021/09/10 01:19:33;;;;;;;8.98;7.30;;;;;;;;;;4974236;28;20019;-57
2021/09/10 01:22:07;;;;;;;9.48;6.88;;;;;;;;;;4974328;28;20358;-57
2021/09/10 01:24:37;;;;;;;8.20;7.07;;;;;;;;;;4974481;28;20102;-57
2021/09/10 01:27:02;;;;;;;9.95;7.22;;;;;;;;;;4961740;28;20025;-56
2021/09/10 01:29:28;;;;;;;10.32;6.65;;;;;;;;;;4973964;28;20027;-57
2021/09/10 01:31:57;;;;;;;10.25;7.10;;;;;;;;;;4973863;28;20074;-56
2021/09/10 01:34:22;;;;;;;7.28;6.28;;;;;;;;;;4973510;28;20105;-55
2021/09/10 01:36:47;;;;;;;9.40;7.13;;;;;;;;;;4974260;28;20103;-57
2021/09/10 01:39:13;;;;;;;8.20;6.20;;;;;;;;;;4988606;28;20406;-55
2021/09/10 01:41:38;;;;;;;8.98;7.00;;;;;;;;;;4974158;28;20019;-56
2021/09/10 01:44:12;;;;;;;9.23;6.80;;;;;;;;;;4974105;28;20015;-59
2021/09/10 01:46:41;;;;;;;8.23;6.50;;;;;;;;;;4973979;28;20262;-59
2021/09/10 01:49:09;;;;;;;11.55;7.03;;;;;;;;;;4972561;28;20121;-59
2021/09/10 01:51:34;;;;;;;9.10;6.55;;;;;;;;;;4988836;28;20441;-58
2021/09/10 01:54:11;;;;;;;7.37;6.40;;;;;;;;;;4973908;28;20047;-57
2021/09/10 01:56:37;;;;;;;9.73;7.00;;;;;;;;;;4973853;28;20262;-58
2021/09/10 01:59:05;;;;;;;11.38;6.47;;;;;;;;;;4973329;28;20029;-60
2021/09/10 02:01:30;;;;;;;8.80;6.45;;;;;;;;;;4973859;28;20031;-57
2021/09/10 02:03:56;;;;;;;7.50;6.53;;;;;;;;;;4973664;28;20564;-59
2021/09/10 02:06:22;;;;;;;8.82;6.53;;;;;;;;;;4974091;28;20033;-56
2021/09/10 02:08:50;;;;;;;8.77;6.20;;;;;;;;;;4973730;28;20102;-57
2021/09/10 02:11:15;;;;;;;8.32;6.50;;;;;;;;;;4973837;28;20761;-59
2021/09/10 02:13:41;;;;;;;7.47;6.38;;;;;;;;;;4988516;28;20105;-58
2021/09/10 02:16:06;;;;;;;7.68;6.72;;;;;;;;;;4973347;28;20059;-59
2021/09/10 02:18:31;;;;;;;6.40;5.75;;;;;;;;;;4973416;28;20486;-58
2021/09/10 02:20:57;;;;;;;9.23;6.57;;;;;;;;;;4971839;28;20030;-56
2021/09/10 02:23:22;;;;;;;7.50;6.17;;;;;;;;;;4973530;28;20030;-59
2021/09/10 02:25:50;;;;;;;7.93;6.40;;;;;;;;;;4973308;28;20274;-59
2021/09/10 02:28:15;;;;;;;8.00;6.22;;;;;;;;;;4973322;28;20339;-59
2021/09/10 02:30:43;;;;;;;8.75;6.57;;;;;;;;;;4972884;28;20421;-59
2021/09/10 02:33:09;;;;;;;9.40;7.03;;;;;;;;;;4971804;28;20023;-59
2021/09/10 02:35:34;;;;;;;9.80;6.38;;;;;;;;;;4988099;28;20030;-59
2021/09/10 02:37:59;;;;;;;10.10;7.13;;;;;;;;;;4971832;28;20022;-59
2021/09/10 02:40:24;;;;;;;9.07;6.53;;;;;;;;;;4972856;28;20288;-59
2021/09/10 02:42:50;;;;;;;10.10;7.00;;;;;;;;;;4972380;28;20266;-57
2021/09/10 02:45:15;;;;;;;9.60;6.40;;;;;;;;;;4972893;28;20262;-58
2021/09/10 02:47:40;;;;;;;7.77;6.70;;;;;;;;;;4972954;28;20750;-56
2021/09/10 02:50:11;;;;;;;8.40;6.40;;;;;;;;;;4972542;28;20641;-59
2021/09/10 02:52:39;;;;;;;9.73;6.53;;;;;;;;;;4973262;28;20268;-58
2021/09/10 02:55:07;;;;;;;9.20;7.10;;;;;;;;;;4972943;28;20504;-58
2021/09/10 02:57:44;;;;;;;8.05;6.75;;;;;;;;;;4972631;28;20105;-58
2021/09/10 03:00:10;;;;;;;10.18;6.60;;;;;;;;;;4970981;28;20062;-59
2021/09/10 03:02:35;;;;;;;9.10;6.72;;;;;;;;;;4973355;28;20050;-59
2021/09/10 03:05:04;;;;;;;8.77;6.78;;;;;;;;;;4971565;28;20034;-59
2021/09/10 03:07:39;;;;;;;8.05;6.82;;;;;;;;;;4972701;28;20030;-59
2021/09/10 03:10:08;;;;;;;9.70;7.03;;;;;;;;;;4970979;28;20027;-59
2021/09/10 03:12:37;;;;;;;7.78;6.35;;;;;;;;;;4972738;28;20027;-59
2021/09/10 03:15:03;;;;;;;8.27;6.57;;;;;;;;;;4972588;28;20054;-56
2021/09/10 03:17:29;;;;;;;7.72;6.40;;;;;;;;;;4972404;28;20046;-55
2021/09/10 03:19:57;;;;;;;7.07;6.25;;;;;;;;;;4971240;28;20129;-53
2021/09/10 03:22:25;;;;;;;10.85;6.55;;;;;;;;;;4972819;28;20023;-58
2021/09/10 03:24:50;;;;;;;8.07;6.32;;;;;;;;;;4972645;28;20077;-56
2021/09/10 03:27:16;;;;;;;9.27;7.05;;;;;;;;;;4972381;28;20421;-59
2021/09/10 03:29:44;;;;;;;8.45;6.88;;;;;;;;;;4970781;28;20552;-58
2021/09/10 03:32:15;;;;;;;8.82;6.72;;;;;;;;;;4972617;28;20098;-57
2021/09/10 03:34:51;;;;;;;7.90;6.60;;;;;;;;;;4972494;28;20413;-58
2021/09/10 03:37:16;;;;;;;8.07;6.40;;;;;;;;;;4987330;28;20481;-59
2021/09/10 03:39:44;;;;;;;7.50;5.65;;;;;;;;;;4972470;28;20026;-59
2021/09/10 03:42:25;;;;;;;9.50;6.78;;;;;;;;;;4972233;28;20422;-59
2021/09/10 03:44:53;;;;;;;8.38;6.43;;;;;;;;;;4972620;28;20031;-58
2021/09/10 03:47:24;;;;;;;7.53;6.63;;;;;;;;;;4987562;28;20073;-57
2021/09/10 03:49:50;;;;;;;8.18;6.80;;;;;;;;;;4972113;28;20054;-58
2021/09/10 03:52:15;;;;;;;9.83;6.70;;;;;;;;;;4972179;28;20027;-59
2021/09/10 03:54:43;;;;;;;8.27;6.63;;;;;;;;;;4988560;28;20765;-58
2021/09/10 03:57:08;;;;;;;8.48;6.63;;;;;;;;;;4975987;28;20019;-57
2021/09/10 03:59:34;;;;;;;8.77;6.43;;;;;;;;;;4975726;28;20050;-58
2021/09/10 04:01:59;;;;;;;8.00;7.03;;;;;;;;;;4975974;28;20887;-59
2021/09/10 04:04:24;;;;;;;7.95;6.22;;;;;;;;;;4975781;28;20274;-59
2021/09/10 04:06:50;;;;;;;9.67;7.37;;;;;;;;;;4975863;28;20109;-57
2021/09/10 04:09:15;;;;;;;8.27;7.13;;;;;;;;;;4975424;28;20278;-59
2021/09/10 04:11:43;;;;;;;7.95;6.45;;;;;;;;;;4990827;28;20262;-59
2021/09/10 04:14:15;;;;;;;7.53;6.38;;;;;;;;;;4976069;28;20153;-58
2021/09/10 04:16:40;;;;;;;8.45;6.75;;;;;;;;;;4990364;28;20043;-59
2021/09/10 04:19:05;;;;;;;11.82;6.45;;;;;;;;;;4975285;28;20026;-56
2021/09/10 04:21:30;;;;;;;8.67;6.80;;;;;;;;;;4975559;28;20414;-59
2021/09/10 04:23:56;;;;;;;7.85;6.10;;;;;;;;;;4975623;28;20266;-58
2021/09/10 04:26:30;;;;;;;10.32;6.40;;;;;;;;;;4975499;28;20029;-56
2021/09/10 04:28:55;;;;;;;9.38;6.35;;;;;;;;;;4974224;28;20035;-58
2021/09/10 04:31:20;;;;;;;7.07;6.20;;;;;;;;;;4975528;28;20359;-58
2021/09/10 04:33:46;;;;;;;6.93;6.03;;;;;;;;;;4975467;28;20345;-59
2021/09/10 04:36:12;;;;;;;10.43;7.53;;;;;;;;;;4973909;28;20057;-59
2021/09/10 04:38:37;;;;;;;9.02;6.50;;;;;;;;;;4974987;28;20410;-56
2021/09/10 04:41:03;;;;;;;7.80;6.10;;;;;;;;;;4975240;28;20077;-57
2021/09/10 04:43:28;;;;;;;7.43;6.00;;;;;;;;;;4975363;28;20685;-53
2021/09/10 04:45:53;;;;;;;9.82;6.53;;;;;;;;;;4975288;28;20019;-59
2021/09/10 04:48:21;;;;;;;7.43;6.03;;;;;;;;;;4975385;28;20508;-57
2021/09/10 04:50:46;;;;;;;7.32;6.22;;;;;;;;;;4989518;28;20054;-58
2021/09/10 04:53:17;;;;;;;9.47;5.83;;;;;;;;;;4975227;28;20018;-59
2021/09/10 04:55:43;;;;;;;8.13;6.15;;;;;;;;;;4973692;28;20254;-57
2021/09/10 04:58:11;;;;;;;8.02;6.05;;;;;;;;;;4975146;28;20030;-55
2021/09/10 05:00:36;;;;;;;8.18;6.45;;;;;;;;;;4974863;28;20489;-59
2021/09/10 05:03:01;;;;;;;7.57;6.33;;;;;;;;;;4974958;28;20033;-59
2021/09/10 05:05:27;;;;;;;7.40;6.40;;;;;;;;;;4989408;28;20324;-56
2021/09/10 05:07:54;;;;;;;7.60;5.50;;;;;;;;;;4974643;28;20273;-57
2021/09/10 05:10:25;;;;;;;12.80;5.95;;;;;;;;;;4974471;28;20050;-59
2021/09/10 05:12:50;;;;;;;7.60;6.03;;;;;;;;;;4990070;28;20018;-57
2021/09/10 05:15:16;;;;;;;9.70;6.00;;;;;;;;;;4974698;28;20019;-58
2021/09/10 05:17:41;;;;;;;9.10;6.45;;;;;;;;;;4974875;28;20051;-58
2021/09/10 05:20:08;;;;;;;8.93;6.40;;;;;;;;;;4989373;28;20501;-59
2021/09/10 05:22:37;;;;;;;9.50;6.50;;;;;;;;;;4974860;28;20377;-59
2021/09/10 05:25:03;;;;;;;7.53;6.00;;;;;;;;;;4967826;28;20018;-55
2021/09/10 05:27:34;;;;;;;10.25;6.70;;;;;;;;;;4974689;28;20023;-58
2021/09/10 05:30:06;;;;;;;7.90;6.55;;;;;;;;;;4974191;28;20053;-57
2021/09/10 05:32:34;;;;;;;7.63;6.07;;;;;;;;;;4972031;28;20018;-59
2021/09/10 05:35:06;;;;;;;7.53;5.97;;;;;;;;;;4989536;28;20046;-55
2021/09/10 05:37:31;;;;;;;10.37;6.20;;;;;;;;;;4974594;28;20517;-57
2021/09/10 05:39:57;;;;;;;8.30;6.10;;;;;;;;;;4974472;28;20015;-56
2021/09/10 05:42:22;;;;;;;8.77;6.47;;;;;;;;;;4989669;28;20030;-58
2021/09/10 05:44:50;;;;;;;8.67;6.50;;;;;;;;;;4989590;28;20413;-57
2021/09/10 05:47:15;;;;;;;10.73;6.65;;;;;;;;;;4974326;28;20668;-58
2021/09/10 05:49:40;;;;;;;9.00;7.17;;;;;;;;;;4972151;28;20135;-56
2021/09/10 05:52:10;;;;;;;10.33;6.80;;;;;;;;;;4973123;28;20645;-56
2021/09/10 05:54:36;;;;;;;7.97;7.18;;;;;;;;;;4972897;28;20263;-57
2021/09/10 05:57:19;;;;;;;8.45;7.38;;;;;;;;;;4974529;28;20090;-55
2021/09/10 05:59:44;;;;;;;7.25;6.38;;;;;;;;;;4974108;28;20145;-57
2021/09/10 06:02:09;;;;;;;9.03;7.00;;;;;;;;;;4974130;28;20113;-58
2021/09/10 06:04:40;;;;;;;7.43;6.63;;;;;;;;;;4973791;28;20262;-59
2021/09/10 06:07:06;;;;;;;8.65;6.78;;;;;;;;;;4973989;28;20788;-56
2021/09/10 06:09:31;;;;;;;9.77;7.40;;;;;;;;;;4973760;28;20026;-59
2021/09/10 06:11:56;;;;;;;8.95;7.07;;;;;;;;;;4973620;28;20116;-58
2021/09/10 06:14:22;;;;;;;9.60;6.57;;;;;;;;;;4973892;28;20538;-59
2021/09/10 06:16:47;;;;;;;13.90;7.50;;;;;;;;;;4973309;28;20477;-57
2021/09/10 06:19:12;;;;;;;8.48;6.63;;;;;;;;;;4973883;28;20257;-55
2021/09/10 06:21:41;;;;;;;9.27;7.30;;;;;;;;;;4973629;28;20097;-57
2021/09/10 06:24:09;;;;;;;7.65;6.47;;;;;;;;;;4972194;28;20085;-59
2021/09/10 06:26:41;;;;;;;9.35;6.13;;;;;;;;;;4973268;28;20026;-59
2021/09/10 06:29:12;;;;;;;8.70;6.63;;;;;;;;;;4973070;28;20023;-59
2021/09/10 06:31:46;;;;;;;9.88;7.25;;;;;;;;;;4988433;28;20033;-58
2021/09/10 06:34:17;;;;;;;7.85;6.38;;;;;;;;;;4973267;28;20022;-59
2021/09/10 06:36:46;;;;;;;9.93;6.10;;;;;;;;;;4989242;28;20122;-59
2021/09/10 06:39:11;;;;;;;10.38;7.60;;;;;;;;;;4972741;28;20375;-59
2021/09/10 06:41:36;;;;;;;10.88;7.18;;;;;;;;;;4988176;28;20023;-59
2021/09/10 06:44:02;;;;;;;9.70;7.00;;;;;;;;;;4973117;28;20023;-59
2021/09/10 06:46:30;;;;;;;10.52;6.78;;;;;;;;;;4973042;28;20282;-59
2021/09/10 06:48:55;;;;;;;11.32;7.30;;;;;;;;;;4972610;28;20030;-58
2021/09/10 06:51:20;;;;;;;8.13;7.03;;;;;;;;;;4988025;28;20042;-59
2021/09/10 06:53:45;;;;;;;8.85;7.30;;;;;;;;;;4972900;28;20268;-59
2021/09/10 06:56:11;;;;;;;9.57;7.13;;;;;;;;;;4973043;28;20023;-56
2021/09/10 06:58:36;;;;;;;10.18;7.03;;;;;;;;;;4972549;28;20282;-58
2021/09/10 07:01:07;;;;;;;13.00;7.38;;;;;;;;;;4971730;28;20453;-57
2021/09/10 07:03:33;;;;;;;10.40;7.65;;;;;;;;;;4971702;28;20469;-59
2021/09/10 07:06:01;;;;;;;11.80;7.28;;;;;;;;;;4972937;28;20058;-59
2021/09/10 07:08:26;;;;;;;10.43;7.88;;;;;;;;;;4987327;28;20545;-59
2021/09/10 07:10:52;;;;;;;10.75;8.02;;;;;;;;;;4972962;28;20113;-59
2021/09/10 07:13:26;;;;;;;9.17;7.10;;;;;;;;;;4972868;28;20081;-54
2021/09/10 07:15:51;;;;;;;11.98;7.07;;;;;;;;;;4984939;23;20282;-58
2021/09/10 07:18:17;;;;;;;11.77;7.30;;;;;;;;;;4971801;28;20030;-55
2021/09/10 07:20:42;;;;;;;8.25;6.88;;;;;;;;;;4972133;28;20524;-56
2021/09/10 07:23:07;;;;;;;10.88;7.13;;;;;;;;;;4972643;28;20030;-56
2021/09/10 07:25:48;;;;;;;14.90;8.00;;;;;;;;;;4972647;28;20034;-55
2021/09/10 07:28:14;;;;;;;8.20;6.47;;;;;;;;;;4953287;28;20055;-50
2021/09/10 07:30:39;;;;;;;14.52;8.18;;;;;;;;;;4954633;28;20506;-53
2021/09/10 07:33:04;;;;;;;10.98;7.30;;;;;;;;;;4957181;28;20023;-53
2021/09/10 07:35:29;;;;;;;10.43;7.63;;;;;;;;;;4955973;28;20023;-57
2021/09/10 07:37:55;;;;;;;9.65;7.15;;;;;;;;;;4957085;28;20654;-57
2021/09/10 07:40:20;;;;;;;11.87;7.50;;;;;;;;;;4956908;28;20030;-55
2021/09/10 07:42:45;;;;;;;12.83;8.30;;;;;;;;;;4957069;28;20301;-58
2021/09/10 07:45:14;;;;;;;11.73;7.70;;;;;;;;;;4957111;28;20301;-57
2021/09/10 07:47:42;;;;;;;10.25;8.00;;;;;;;;;;4955701;29;20439;-58
2021/09/10 07:50:13;;;;;;;9.05;7.50;;;;;;;;;;4955197;28;20023;-57
2021/09/10 07:52:38;;;;;;;12.23;7.85;;;;;;;;;;4963801;28;20016;-57
2021/09/10 07:55:06;;;;;;;8.67;7.57;;;;;;;;;;4937776;29;20303;-56
2021/09/10 07:57:32;;;;;;;8.50;7.45;;;;;;;;;;4940202;29;20338;-57
2021/09/10 07:59:57;;;;;;;13.77;7.53;;;;;;;;;;4945235;28;20028;-58
2021/09/10 08:02:26;;;;;;;11.15;7.45;;;;;;;;;;4953947;29;20619;-55
2021/09/10 08:05:04;;;;;;;9.80;7.22;;;;;;;;;;4945532;28;20430;-53
2021/09/10 08:07:29;;;;;;;9.77;7.15;;;;;;;;;;4942674;29;20470;-53
2021/09/10 08:09:54;;;;;;;10.80;7.68;;;;;;;;;;4956338;28;20082;-57
2021/09/10 08:12:28;;;;;;;14.50;7.17;;;;;;;;;;4956672;29;20031;-55
2021/09/10 08:14:56;;;;;;;12.45;7.35;;;;;;;;;;4956557;28;20630;-56
2021/09/10 08:17:22;;;;;;;9.63;7.20;;;;;;;;;;4956361;28;20047;-54
2021/09/10 08:19:49;;;;;;;10.50;7.47;;;;;;;;;;4942142;28;20447;-53
2021/09/10 08:22:14;;;;;;;10.82;8.20;;;;;;;;;;4937584;29;20028;-53
2021/09/10 08:24:40;;;;;;;12.63;7.87;;;;;;;;;;4920056;29;20019;-52
2021/09/10 08:27:08;;;;;;;12.57;8.30;;;;;;;;;;4935841;29;20271;-56
2021/09/10 08:29:39;;;;;;;11.77;7.95;;;;;;;;;;4935308;29;20035;-58
2021/09/10 08:32:14;;;;;;;9.43;7.38;;;;;;;;;;4935929;29;20016;-57
2021/09/10 08:34:45;;;;;;;10.48;7.53;;;;;;;;;;4936949;29;20491;-58
2021/09/10 08:37:13;;;;;;;9.32;8.02;;;;;;;;;;4936913;29;20027;-58
2021/09/10 08:39:45;;;;;;;12.45;8.77;;;;;;;;;;4936625;29;20157;-58
2021/09/10 08:42:13;;;;;;;11.55;8.30;;;;;;;;;;4936819;29;20031;-58
2021/09/10 08:44:38;;;;;;;9.93;8.50;;;;;;;;;;4937034;29;20366;-58
2021/09/10 08:47:08;;;;;;;10.85;8.80;;;;;;;;;;4936778;29;20031;-57
2021/09/10 08:49:37;;;;;;;11.40;8.98;;;;;;;;;;4934911;29;20019;-58
2021/09/10 08:52:03;;;;;;;10.18;8.60;;;;;;;;;;4961264;28;20023;-58
2021/09/10 08:54:28;;;;;;;12.43;9.25;;;;;;;;;;4936592;28;20016;-57
2021/09/10 08:56:56;;;;;;;15.03;9.60;;;;;;;;;;4936908;29;20027;-58
2021/09/10 08:59:25;;;;;;;9.70;8.70;;;;;;;;;;4948111;29;20339;-56
2021/09/10 09:01:51;;;;;;;13.90;9.32;;;;;;;;;;4935407;29;20379;-56
2021/09/10 09:04:17;;;;;;;17.23;8.82;;;;;;;;;;4935280;29;20023;-54
2021/09/10 09:06:57;;;;;;;16.08;9.15;;;;;;;;;;4936416;29;20494;-57
2021/09/10 09:09:32;;;;;;;13.05;9.07;;;;;;;;;;4936190;29;20047;-58
2021/09/10 09:12:09;;;;;;;12.68;9.70;;;;;;;;;;4936503;29;20478;-57
2021/09/10 09:14:44;;;;;;;15.63;9.55;;;;;;;;;;4936418;29;20058;-57
2021/09/10 09:17:27;;;;;;;14.32;10.25;;;;;;;;;;4935931;29;20122;-57
2021/09/10 09:20:14;;;;;;;14.88;10.00;;;;;;;;;;4936013;29;20082;-58
2021/09/10 09:22:58;;;;;;;11.45;9.13;;;;;;;;;;4936522;29;20031;-58
2021/09/10 09:25:29;;;;;;;12.60;9.10;;;;;;;;;;4941377;28;20027;-57
2021/09/10 09:27:55;;;;;;;11.43;8.90;;;;;;;;;;4954563;28;20491;-57
2021/09/10 09:30:39;;;;;;;9.93;8.23;;;;;;;;;;4936926;28;20115;-58
2021/09/10 09:33:04;;;;;;;11.10;8.40;;;;;;;;;;4934853;29;20371;-55
2021/09/10 09:35:30;;;;;;;14.32;9.95;;;;;;;;;;4946437;28;20107;-55
2021/09/10 09:37:56;;;;;;;12.25;8.95;;;;;;;;;;4955091;28;20034;-52
2021/09/10 09:40:32;;;;;;;12.07;9.23;;;;;;;;;;4955049;28;20390;-54
2021/09/10 09:42:57;;;;;;;11.30;8.48;;;;;;;;;;4951431;28;20110;-55
2021/09/10 09:45:24;;;;;;;11.10;8.80;;;;;;;;;;4951718;28;20103;-54
2021/09/10 09:47:52;;;;;;;12.40;9.30;;;;;;;;;;4955008;28;20027;-57
2021/09/10 09:50:18;;;;;;;11.70;9.00;;;;;;;;;;4954844;28;20066;-55
2021/09/10 09:52:48;;;;;;;13.95;9.73;;;;;;;;;;4954267;28;20114;-56
2021/09/10 09:55:13;;;;;;;15.20;10.65;;;;;;;;;;4944408;28;20510;-58
2021/09/10 09:57:38;;;;;;;13.23;10.50;;;;;;;;;;4937891;29;20043;-56
2021/09/10 10:00:13;;;;;;;13.52;10.88;;;;;;;;;;4953344;29;20026;-55
2021/09/10 10:02:41;;;;;;;14.55;9.98;;;;;;;;;;4954554;28;20030;-58
2021/09/10 10:05:07;;;;;;;13.52;9.82;;;;;;;;;;4954986;28;20038;-56
2021/09/10 10:07:43;;;;;;;13.68;10.27;;;;;;;;;;4952947;28;20050;-58
2021/09/10 10:10:28;;;;;;;11.60;10.40;;;;;;;;;;4957238;28;20438;-56
2021/09/10 10:12:54;;;;;;;15.15;10.15;;;;;;;;;;4941931;28;20019;-53
2021/09/10 10:15:29;;;;;;;18.50;10.82;;;;;;;;;;4949450;28;20024;-57
2021/09/10 10:17:55;;;;;;;12.90;9.65;;;;;;;;;;4956344;28;20047;-55
2021/09/10 10:20:40;;;;;;;13.48;9.98;;;;;;;;;;4967963;28;20031;-57
2021/09/10 10:23:25;;;;;;;14.27;10.75;;;;;;;;;;4954491;29;20039;-58
2021/09/10 10:26:09;;;;;;;13.20;9.20;;;;;;;;;;4953926;29;20503;-57
2021/09/10 10:29:02;;;;;;;19.58;10.68;;;;;;;;;;4960390;28;20031;-54
2021/09/10 10:31:46;;;;;;;14.73;9.90;;;;;;;;;;4953182;29;20076;-58
2021/09/10 10:34:11;;;;;;;11.57;9.40;;;;;;;;;;4954115;29;20020;-58
2021/09/10 10:36:39;;;;;;;11.93;8.10;;;;;;;;;;4939659;28;20026;-58
2021/09/10 10:39:15;;;;;;;10.35;8.23;;;;;;;;;;4933651;29;20267;-58
2021/09/10 10:41:46;;;;;;;11.93;9.15;;;;;;;;;;4934891;29;20034;-56
2021/09/10 10:44:30;;;;;;;10.93;8.80;;;;;;;;;;4934967;29;20023;-55
2021/09/10 10:47:12;;;;;;;11.93;9.73;;;;;;;;;;4933080;29;20039;-56
2021/09/10 10:49:38;;;;;;;10.05;8.30;;;;;;;;;;4933519;29;20058;-57
2021/09/10 10:52:27;;;;;;;12.03;9.40;;;;;;;;;;4934648;29;20483;-58
2021/09/10 10:55:11;;;;;;;12.25;9.48;;;;;;;;;;4933489;29;20028;-58
2021/09/10 10:57:36;;;;;;;12.32;9.45;;;;;;;;;;4934367;29;20059;-58
2021/09/10 11:00:23;;;;;;;10.87;8.50;;;;;;;;;;4933398;29;20079;-58
2021/09/10 11:03:11;;;;;;;12.80;9.75;;;;;;;;;;4949811;29;20035;-58
2021/09/10 11:05:44;;;;;;;12.00;8.82;;;;;;;;;;4951481;29;20540;-58
2021/09/10 11:08:27;;;;;;;10.55;8.30;;;;;;;;;;4947144;28;20023;-58
2021/09/10 11:10:56;;;;;;;11.40;9.25;;;;;;;;;;4933254;29;20023;-53
2021/09/10 11:13:21;;;;;;;13.80;9.82;;;;;;;;;;4934385;28;20059;-57
2021/09/10 11:15:49;;;;;;;12.00;9.33;;;;;;;;;;4954387;28;20490;-56
2021/09/10 11:18:15;;;;;;;13.15;9.27;;;;;;;;;;4954226;28;20393;-58
2021/09/10 11:20:46;;;;;;;12.02;8.80;;;;;;;;;;4960723;28;20456;-55
2021/09/10 11:23:15;;;;;;;11.18;8.45;;;;;;;;;;4950241;28;20081;-57
2021/09/10 11:25:48;;;;;;;12.32;9.48;;;;;;;;;;4949092;28;20031;-57
2021/09/10 11:28:13;;;;;;;;;;;;;;;;;;4956515;28;20061;-58
2021/09/10 11:30:38;;;;;;;10.35;9.10;;;;;;;;;;4945193;28;19965;-56
2021/09/10 11:33:12;;;;;;;12.15;8.98;;;;;;;;;;4936610;28;20501;-58
2021/09/10 11:35:40;;;;;;;12.32;9.65;;;;;;;;;;4948710;28;20402;-52
2021/09/10 11:38:21;;;;;;;13.40;9.27;;;;;;;;;;4955015;28;20098;-53
2021/09/10 11:40:50;;;;;;;13.07;9.93;;;;;;;;;;4949464;28;20038;-56
2021/09/10 11:43:44;;;;;;;12.55;9.60;;;;;;;;;;4953890;28;20037;-53
2021/09/10 11:46:13;;;;;;;12.15;9.88;;;;;;;;;;4948236;28;20041;-53
2021/09/10 11:48:46;;;;;;;19.73;9.38;;;;;;;;;;4953985;28;20386;-53
2021/09/10 11:51:13;;;;;;;14.02;10.57;;;;;;;;;;4955894;28;20031;-54
2021/09/10 11:53:56;;;;;;;15.85;9.73;;;;;;;;;;4954342;28;20062;-54
2021/09/10 11:56:29;;;;;;;15.68;9.02;;;;;;;;;;4951594;28;20025;-53
2021/09/10 11:58:54;;;;;;;11.27;8.05;;;;;;;;;;4958783;28;20030;-55
2021/09/10 12:01:28;;;;;;;10.57;8.00;;;;;;;;;;4950940;28;20023;-52
2021/09/10 12:04:02;;;;;;;12.13;7.78;;;;;;;;;;4945723;28;20028;-54
2021/09/10 12:06:35;;;;;;;10.90;7.60;;;;;;;;;;4933594;29;20054;-51
2021/09/10 12:09:15;;;;;;;10.85;7.55;;;;;;;;;;4941981;29;20078;-55
2021/09/10 12:11:59;;;;;;;10.63;6.85;;;;;;;;;;4948316;29;20111;-53
2021/09/10 12:14:43;;;;;;;11.32;7.07;;;;;;;;;;4949215;28;20027;-57
2021/09/10 12:17:16;;;;;;;8.18;6.95;;;;;;;;;;4955275;28;20050;-52
2021/09/10 12:20:02;;;;;;;9.10;6.97;;;;;;;;;;4955483;28;20012;-52
2021/09/10 12:22:43;;;;;;;9.55;7.07;;;;;;;;;;4955230;29;20027;-56
2021/09/10 12:25:27;;;;;;;12.73;8.23;;;;;;;;;;4956075;28;20015;-57
2021/09/10 12:28:08;;;;;;;9.55;7.05;;;;;;;;;;4956569;29;20023;-55
2021/09/10 12:30:40;;;;;;;12.20;7.53;;;;;;;;;;4956357;28;20024;-58
2021/09/10 12:33:05;;;;;;;;;;;;;;;;;;4955522;29;20102;-54
2021/09/10 12:35:31;;;;;;;11.88;7.60;;;;;;;;;;4955820;28;20041;-56
2021/09/10 12:37:58;;;;;;;7.78;6.63;;;;;;;;;;4955191;29;20077;-55
2021/09/10 12:40:24;;;;;;;9.68;7.68;;;;;;;;;;4956438;28;20031;-54
2021/09/10 12:42:56;;;;;;;8.05;7.07;;;;;;;;;;4956156;29;20403;-57
2021/09/10 12:45:21;;;;;;;9.60;6.55;;;;;;;;;;4955753;28;20054;-53
2021/09/10 12:47:47;;;;;;;8.30;6.63;;;;;;;;;;4954689;28;20059;-55
2021/09/10 12:50:12;;;;;;;8.10;6.32;;;;;;;;;;4954726;29;20038;-52
2021/09/10 12:52:41;;;;;;;8.05;6.82;;;;;;;;;;4956110;28;20020;-54
2021/09/10 12:55:06;;;;;;;8.55;6.30;;;;;;;;;;4955653;28;20389;-55
2021/09/10 12:57:35;;;;;;;7.97;6.30;;;;;;;;;;4955820;28;20023;-53
2021/09/10 13:00:11;;;;;;;9.13;6.50;;;;;;;;;;4954633;28;20059;-56
2021/09/10 13:02:36;;;;;;;11.73;7.28;;;;;;;;;;4955722;28;20027;-57
2021/09/10 13:05:07;;;;;;;9.18;6.50;;;;;;;;;;4955427;28;20031;-56
2021/09/10 13:07:43;;;;;;;9.80;6.75;;;;;;;;;;4954367;28;20074;-58
2021/09/10 13:10:12;;;;;;;9.90;6.95;;;;;;;;;;4955716;28;20028;-55
2021/09/10 13:12:40;;;;;;;8.75;6.68;;;;;;;;;;4955614;29;20074;-54
2021/09/10 13:15:06;;;;;;;10.77;7.00;;;;;;;;;;4953815;29;20037;-56
2021/09/10 13:17:31;;;;;;;9.10;6.68;;;;;;;;;;4953618;28;20039;-48
2021/09/10 13:19:57;;;;;;;9.43;7.10;;;;;;;;;;4945767;29;20078;-48
2021/09/10 13:22:25;;;;;;;11.60;7.67;;;;;;;;;;4936585;29;20051;-53
2021/09/10 13:24:50;;;;;;;9.32;6.90;;;;;;;;;;4938892;29;20616;-48
2021/09/10 13:27:17;;;;;;;9.50;6.63;;;;;;;;;;4938649;29;20074;-51
2021/09/10 13:29:46;;;;;;;8.55;6.60;;;;;;;;;;4936805;29;20063;-53
2021/09/10 13:32:11;;;;;;;8.13;6.78;;;;;;;;;;4935725;29;20034;-50
2021/09/10 13:34:46;;;;;;;8.75;6.35;;;;;;;;;;4939103;29;20099;-54
2021/09/10 13:37:14;;;;;;;7.45;6.70;;;;;;;;;;4936705;29;20092;-51
2021/09/10 13:39:40;;;;;;;9.38;7.40;;;;;;;;;;4936799;29;20023;-50
2021/09/10 13:42:25;;;;;;;6.97;6.20;;;;;;;;;;4919457;29;20051;-49
2021/09/10 13:44:53;;;;;;;6.95;6.22;;;;;;;;;;4935453;29;20536;-48
2021/09/10 13:47:19;;;;;;;9.00;6.40;;;;;;;;;;4936564;29;20475;-48
2021/09/10 13:49:48;;;;;;;7.20;6.50;;;;;;;;;;4936453;29;20502;-52
2021/09/10 13:52:21;;;;;;;7.00;6.10;;;;;;;;;;4944012;29;20034;-49
2021/09/10 13:54:46;;;;;;;6.88;6.18;;;;;;;;;;4936455;29;20102;-48
2021/09/10 13:57:11;;;;;;;7.93;6.40;;;;;;;;;;4935236;29;20107;-48
2021/09/10 13:59:39;;;;;;;7.25;5.97;;;;;;;;;;4935243;29;20263;-50
2021/09/10 14:02:08;;;;;;;7.50;6.00;;;;;;;;;;4936440;29;20050;-53
2021/09/10 14:04:33;;;;;;;7.65;5.75;;;;;;;;;;4935088;29;20391;-51
2021/09/10 14:06:58;;;;;;;7.10;6.03;;;;;;;;;;4936110;29;20016;-51
2021/09/10 14:09:25;;;;;;;11.32;6.85;;;;;;;;;;4936216;29;20059;-50
2021/09/10 14:11:50;;;;;;;7.70;6.90;;;;;;;;;;4934869;29;20032;-52
2021/09/10 14:14:25;;;;;;;9.18;6.53;;;;;;;;;;4934902;29;20020;-53
2021/09/10 14:16:56;;;;;;;7.57;6.68;;;;;;;;;;4935895;29;20075;-52
2021/09/10 14:19:21;;;;;;;7.97;6.97;;;;;;;;;;4948361;28;20023;-55
2021/09/10 14:21:54;;;;;;;8.73;6.35;;;;;;;;;;4935832;29;20031;-53
2021/09/10 14:24:22;;;;;;;8.23;6.32;;;;;;;;;;4935940;29;20035;-53
2021/09/10 14:26:53;;;;;;;10.05;6.88;;;;;;;;;;4949135;29;20105;-54
2021/09/10 14:29:19;;;;;;;7.10;5.65;;;;;;;;;;4955026;28;20526;-50
2021/09/10 14:31:44;;;;;;;11.80;7.23;;;;;;;;;;4955345;28;20066;-54
2021/09/10 14:34:15;;;;;;;7.47;6.18;;;;;;;;;;4954777;28;20906;-54
2021/09/10 14:36:46;;;;;;;9.52;6.80;;;;;;;;;;4954765;28;20015;-51
2021/09/10 14:39:12;;;;;;;9.10;6.25;;;;;;;;;;4954791;28;20023;-55
2021/09/10 14:41:37;;;;;;;6.72;5.78;;;;;;;;;;4953546;29;20070;-53
2021/09/10 14:44:02;;;;;;;7.95;6.45;;;;;;;;;;4954733;28;20089;-52
2021/09/10 14:46:28;;;;;;;9.65;6.45;;;;;;;;;;4954610;28;20031;-54
2021/09/10 14:48:56;;;;;;;7.18;6.47;;;;;;;;;;4953424;28;20139;-51